CheckWX is a tool to help pilots better visualize weather data.  It is not intended as a substitute for an official pre-flight weather briefing.

05:25:07 UTC

CYQB METAR
Quebec / Jean Lesage International Airport
Quebec, Canada
Current

25 mins ago

CYQB 240500Z 00000KT 15SM FEW074 13/11 A2990 RMK AC2 SLP128
Observed
Jul-24 @ 05:00 UTC
Visibility
15 SM
Flight Rules
VFR
Cloud Levels
  • Few at 7,400' AGL
Temperature
13°C / 55°F
Dewpoint
11°C / 52°F
Humidity
88%
Altimeter
29.9" Hg
Pressure
1012.52 hPa
Previous

1 hour ago

CYQB 240400Z 00000KT 15SM SKC 15/11 A2990 RMK SLP128 DENSITY ALT 400FT
Observed
Jul-24 @ 04:00 UTC
Visibility
15 SM
Flight Rules
VFR
Cloud Levels
  • Clear skies
Temperature
15°C / 59°F
Dewpoint
11°C / 52°F
Humidity
77%
Altimeter
29.9" Hg
Pressure
1012.52 hPa
Previous

2 hours ago

CYQB 240300Z 28003KT 250V320 15SM FEW064 17/12 A2989 RMK SC1 SLP123 DENSITY ALT 600FT
Observed
Jul-24 @ 03:00 UTC
Wind
  • 280° at 3 KTS
Visibility
15 SM
Flight Rules
VFR
Cloud Levels
  • Few at 6,400' AGL
Temperature
17°C / 63°F
Dewpoint
12°C / 54°F
Humidity
73%
Altimeter
29.89" Hg
Pressure
1012.22 hPa